createdAt,value
2022-10-05T00:00:54.253Z,0.07
2022-10-05T00:04:11.156Z,0.21
2022-10-05T00:07:19.887Z,0.29
2022-10-05T00:10:24.894Z,0.34
2022-10-05T00:13:31.347Z,0.50
2022-10-05T00:16:36.154Z,0.50
2022-10-05T00:19:40.336Z,0.41
2022-10-05T00:22:44.400Z,0.51
2022-10-05T00:25:48.761Z,0.65
2022-10-05T00:28:54.682Z,0.58
2022-10-05T00:31:59.682Z,0.54
2022-10-05T00:35:03.404Z,0.56
2022-10-05T00:38:07.214Z,0.65
2022-10-05T00:41:32.827Z,0.72
2022-10-05T00:44:52.364Z,0.53
2022-10-05T00:48:27.090Z,0.62
2022-10-05T00:51:34.470Z,0.74
2022-10-05T00:54:48.021Z,0.95
2022-10-05T00:58:22.097Z,1.11
2022-10-05T01:01:58.226Z,1.12
2022-10-05T01:05:22.267Z,0.98
2022-10-05T01:08:38.520Z,0.98
2022-10-05T01:11:48.412Z,1.14
2022-10-05T01:15:13.831Z,1.38
2022-10-05T01:18:39.188Z,1.74
2022-10-05T01:22:21.391Z,1.75
2022-10-05T01:25:52.491Z,1.75
2022-10-05T01:29:20.768Z,1.91
2022-10-05T01:33:03.737Z,2.23
2022-10-05T01:36:35.728Z,2.21
2022-10-05T01:40:28.738Z,2.35
2022-10-05T01:43:53.677Z,2.54
2022-10-05T01:47:18.276Z,2.63
2022-10-05T01:50:33.510Z,2.70
2022-10-05T01:54:03.915Z,2.84
2022-10-05T01:57:26.198Z,3.07
2022-10-05T02:00:30.569Z,3.09
2022-10-05T02:03:48.375Z,3.22
2022-10-05T02:06:53.540Z,3.27
2022-10-05T02:10:31.622Z,3.33
2022-10-05T02:13:48.145Z,3.34
2022-10-05T02:16:53.868Z,3.58
2022-10-05T02:20:04.831Z,3.49
2022-10-05T02:23:17.631Z,3.68
2022-10-05T02:26:21.973Z,3.80
2022-10-05T02:29:31.583Z,3.88
2022-10-05T02:32:43.160Z,3.80
2022-10-05T02:35:46.620Z,4.05
2022-10-05T02:39:00.720Z,4.41
2022-10-05T02:42:16.931Z,4.38
2022-10-05T02:45:32.659Z,4.18
2022-10-05T02:49:04.217Z,3.83
2022-10-05T02:52:18.412Z,3.94
2022-10-05T02:55:46.915Z,4.01
2022-10-05T02:59:14.929Z,4.32
2022-10-05T03:02:33.485Z,3.82
2022-10-05T03:05:47.568Z,3.95
2022-10-05T03:09:02.483Z,4.15
2022-10-05T03:12:26.223Z,4.00
2022-10-05T03:15:42.934Z,4.17
2022-10-05T03:19:28.981Z,3.75
2022-10-05T03:22:45.301Z,3.75
2022-10-05T03:25:54.504Z,3.63
2022-10-05T03:29:25.392Z,3.56
2022-10-05T03:32:32.110Z,3.51
2022-10-05T03:36:04.404Z,3.86
2022-10-05T03:39:11.775Z,3.61
2022-10-05T03:42:29.988Z,3.66
2022-10-05T03:45:39.489Z,4.11
2022-10-05T03:48:58.352Z,4.40
2022-10-05T03:52:09.989Z,4.07
2022-10-05T03:55:34.944Z,3.98
2022-10-05T03:58:51.951Z,3.86
2022-10-05T04:01:56.987Z,3.65
2022-10-05T04:05:06.405Z,3.67
2022-10-05T04:08:55.952Z,3.86
2022-10-05T04:12:17.289Z,3.92
2022-10-05T04:15:30.999Z,4.06
2022-10-05T04:18:42.473Z,4.16
2022-10-05T04:22:02.443Z,4.11
2022-10-05T04:25:24.634Z,4.09
2022-10-05T04:28:54.359Z,4.51
2022-10-05T04:32:01.677Z,5.05
2022-10-05T04:35:26.761Z,5.35
2022-10-05T04:38:51.822Z,5.44
2022-10-05T04:42:05.845Z,5.49
2022-10-05T04:45:46.445Z,5.74
2022-10-05T04:49:00.188Z,5.90
2022-10-05T04:52:14.684Z,5.99
2022-10-05T04:55:57.509Z,5.79
2022-10-05T04:59:25.841Z,5.43
2022-10-05T05:03:10.619Z,5.25
2022-10-05T05:06:35.964Z,4.64
2022-10-05T05:09:48.854Z,4.25
2022-10-05T05:13:35.251Z,4.85
2022-10-05T05:16:42.291Z,5.22
2022-10-05T05:20:10.963Z,5.29
2022-10-05T05:23:55.768Z,5.47
2022-10-05T05:27:11.472Z,5.31
2022-10-05T05:30:25.696Z,5.30
2022-10-05T05:33:37.968Z,5.25
2022-10-05T05:36:56.403Z,5.36
2022-10-05T05:40:16.548Z,5.40
2022-10-05T05:43:27.759Z,5.38
2022-10-05T05:47:02.343Z,5.05
2022-10-05T05:50:21.499Z,4.90
2022-10-05T05:53:45.487Z,4.63
2022-10-05T05:57:11.823Z,4.54
2022-10-05T06:00:16.116Z,4.70
2022-10-05T06:03:34.235Z,4.60
2022-10-05T06:06:43.338Z,4.50
2022-10-05T06:09:54.408Z,4.52
2022-10-05T06:13:14.252Z,4.66
2022-10-05T06:16:33.352Z,4.66
2022-10-05T06:19:39.368Z,4.77
2022-10-05T06:22:47.070Z,4.76
2022-10-05T06:26:12.371Z,4.56
2022-10-05T06:29:24.254Z,4.48
2022-10-05T06:32:31.314Z,4.38
2022-10-05T06:36:07.483Z,4.55
2022-10-05T06:39:54.630Z,4.81
2022-10-05T06:43:10.651Z,4.99
2022-10-05T06:46:42.543Z,5.36
2022-10-05T06:50:39.125Z,5.50
2022-10-05T06:54:24.104Z,5.62
2022-10-05T06:57:45.836Z,5.29
2022-10-05T07:01:11.540Z,4.79
2022-10-05T07:04:37.773Z,4.76
2022-10-05T07:08:04.919Z,4.61
2022-10-05T07:11:42.042Z,4.52
2022-10-05T07:15:10.457Z,4.24
2022-10-05T07:18:23.485Z,4.23
2022-10-05T07:21:56.022Z,4.14
2022-10-05T07:25:03.353Z,3.97
2022-10-05T07:28:23.306Z,3.69
2022-10-05T07:31:38.874Z,3.90
2022-10-05T07:35:35.385Z,4.10
2022-10-05T07:38:46.675Z,3.91
2022-10-05T07:42:24.265Z,3.74
2022-10-05T07:45:47.589Z,3.66
2022-10-05T07:49:03.859Z,3.90
2022-10-05T07:52:45.700Z,3.76
2022-10-05T07:55:54.928Z,3.67
2022-10-05T07:59:08.341Z,3.65
2022-10-05T08:03:05.411Z,3.70
2022-10-05T08:06:15.195Z,3.55
2022-10-05T08:09:48.163Z,3.34
2022-10-05T08:13:09.182Z,3.32
2022-10-05T08:16:14.131Z,3.41
2022-10-05T08:19:27.005Z,3.43
2022-10-05T08:22:41.602Z,3.18
2022-10-05T08:25:58.901Z,3.14
2022-10-05T08:29:06.711Z,3.23
2022-10-05T08:32:51.268Z,3.36
2022-10-05T08:36:13.145Z,3.33
2022-10-05T08:39:20.517Z,3.39
2022-10-05T08:42:37.895Z,3.41
2022-10-05T08:46:10.162Z,3.42
2022-10-05T08:49:22.244Z,3.34
2022-10-05T08:52:47.748Z,3.47
2022-10-05T08:56:28.827Z,3.58
2022-10-05T08:59:56.696Z,3.65
2022-10-05T09:03:24.101Z,3.55
2022-10-05T09:06:47.954Z,3.08
2022-10-05T09:10:14.559Z,2.88
2022-10-05T09:13:20.524Z,2.86
2022-10-05T09:16:42.368Z,2.74
2022-10-05T09:20:24.177Z,2.79
2022-10-05T09:23:43.871Z,2.89
2022-10-05T09:27:14.916Z,2.86
2022-10-05T09:30:29.388Z,2.82
2022-10-05T09:33:58.884Z,2.97
2022-10-05T09:37:30.909Z,2.91
2022-10-05T09:40:42.004Z,2.78
2022-10-05T09:44:18.050Z,2.77
2022-10-05T09:47:30.802Z,2.83
2022-10-05T09:50:54.948Z,2.84
2022-10-05T09:54:11.298Z,2.78
2022-10-05T09:57:37.542Z,2.63
2022-10-05T10:01:16.027Z,2.71
2022-10-05T10:05:11.164Z,2.75
2022-10-05T10:08:21.180Z,2.72
2022-10-05T10:11:44.970Z,2.67
2022-10-05T10:14:51.493Z,2.62
2022-10-05T10:18:13.696Z,2.63
2022-10-05T10:21:26.575Z,2.62
2022-10-05T10:24:57.147Z,2.52
2022-10-05T10:28:30.864Z,2.54
2022-10-05T10:31:59.228Z,2.46
2022-10-05T10:35:08.551Z,2.47
2022-10-05T10:38:27.074Z,2.50
2022-10-05T10:41:37.932Z,2.48
2022-10-05T10:45:13.836Z,2.49
2022-10-05T10:48:20.021Z,2.53
2022-10-05T10:51:31.721Z,2.49
2022-10-05T10:54:53.801Z,2.35
2022-10-05T10:58:39.151Z,2.30
2022-10-05T11:01:54.621Z,2.38
2022-10-05T11:05:22.064Z,2.35
2022-10-05T11:09:03.838Z,2.29
2022-10-05T11:12:10.805Z,2.31
2022-10-05T11:15:52.870Z,2.21
2022-10-05T11:19:20.690Z,2.21
2022-10-05T11:22:36.000Z,2.20
2022-10-05T11:26:00.496Z,2.17
2022-10-05T11:29:26.891Z,2.10
2022-10-05T11:32:54.365Z,2.08
2022-10-05T11:36:20.732Z,2.12
2022-10-05T11:39:40.232Z,2.11
2022-10-05T11:43:12.357Z,2.19
2022-10-05T11:46:29.703Z,2.15
2022-10-05T11:49:40.554Z,2.02
2022-10-05T11:53:02.307Z,2.03
2022-10-05T11:56:15.519Z,2.09
2022-10-05T11:59:28.174Z,1.97
2022-10-05T12:02:56.480Z,2.05
2022-10-05T12:06:28.964Z,2.06
2022-10-05T12:10:03.589Z,2.15
2022-10-05T12:13:21.032Z,2.20
2022-10-05T12:16:32.987Z,2.25
2022-10-05T12:20:20.169Z,2.29
2022-10-05T12:23:47.334Z,2.36
2022-10-05T12:27:26.288Z,2.36
2022-10-05T12:30:54.933Z,2.39
2022-10-05T12:34:43.088Z,2.26
2022-10-05T12:38:26.876Z,2.19
2022-10-05T12:41:43.541Z,2.23
2022-10-05T12:45:10.850Z,2.31
2022-10-05T12:48:28.454Z,2.30
2022-10-05T12:51:57.535Z,2.32
2022-10-05T12:55:10.662Z,2.33
2022-10-05T12:58:22.542Z,2.34
2022-10-05T13:01:45.251Z,2.37
2022-10-05T13:05:03.115Z,2.28
2022-10-05T13:08:37.554Z,2.22
2022-10-05T13:11:56.867Z,2.04
2022-10-05T13:15:08.895Z,2.06
2022-10-05T13:18:55.178Z,2.04
2022-10-05T13:22:09.105Z,2.01
2022-10-05T13:25:31.157Z,1.99
2022-10-05T13:28:57.081Z,2.07
2022-10-05T13:32:14.657Z,2.04
2022-10-05T13:35:44.141Z,2.01
2022-10-05T13:38:58.930Z,2.10
2022-10-05T13:42:22.711Z,2.15
2022-10-05T13:45:46.334Z,2.14
2022-10-05T13:49:05.973Z,2.17
2022-10-05T13:52:38.962Z,2.16
2022-10-05T13:56:02.815Z,2.08
2022-10-05T13:59:30.483Z,2.10
2022-10-05T14:02:42.440Z,2.18
2022-10-05T14:05:58.242Z,2.21
2022-10-05T14:09:02.553Z,2.26
2022-10-05T14:12:06.170Z,2.28
2022-10-05T14:15:42.229Z,2.26
2022-10-05T14:18:53.297Z,2.33
2022-10-05T14:22:01.091Z,2.28
2022-10-05T14:25:08.752Z,2.26
2022-10-05T14:28:13.706Z,2.26
2022-10-05T14:31:32.806Z,2.27
2022-10-05T14:34:57.879Z,2.25
2022-10-05T14:38:08.714Z,2.22
2022-10-05T14:41:13.648Z,2.21
2022-10-05T14:48:02.633Z,2.22
2022-10-05T14:51:12.244Z,2.20
2022-10-05T14:54:45.499Z,2.24
2022-10-05T14:58:15.096Z,2.21
2022-10-05T15:01:40.210Z,2.21
2022-10-05T15:04:52.592Z,2.20
2022-10-05T15:08:02.678Z,2.21
2022-10-05T15:11:19.173Z,2.22
2022-10-05T15:14:27.062Z,2.22
2022-10-05T15:17:44.516Z,2.22
2022-10-05T15:20:47.800Z,2.16
